Time;durP1;ratioP1;P1;durP2;ratioP2;P2;SDS_P1;SDS_P2;PMS_P1;PMS_P2;Temp;Humidity;BMP_temperature;BMP_pressure;BME280_temperature;BME280_humidity;BME280_pressure;Samples;Min_cycle;Max_cycle;Signal;HPM_P1;HPM_P2
2021/12/12 00:00:44;;;;;;;48.17;44.53;;;;;;;7.38;88.46;101699.31;2087354;28;20915;-85
2021/12/12 00:01:49;;;;;;;56.70;52.47;;;;;;;7.08;88.81;101658.97;2087519;28;20501;-85
2021/12/12 00:02:56;;;;;;;49.90;46.60;;;;;;;7.50;88.95;101712.97;2087052;28;20219;-85
2021/12/12 00:04:10;;;;;;;270.63;243.80;;;;;;;6.80;88.72;101608.91;2086964;28;20196;-85
2021/12/12 00:05:14;;;;;;;51.27;47.43;;;;;;;6.81;88.11;101608.81;2089089;28;20284;-85
2021/12/12 00:06:25;;;;;;;149.20;138.53;;;;;;;7.48;88.76;101721.00;2089451;28;20207;-85
2021/12/12 00:07:31;;;;;;;186.63;170.70;;;;;;;7.44;88.46;101732.72;2089653;28;20469;-85
2021/12/12 00:08:34;;;;;;;50.90;47.37;;;;;;;6.96;88.80;101662.19;2089450;28;20203;-85
2021/12/12 00:10:11;;;;;;;53.60;49.73;;;;;;;7.47;88.72;101729.91;2089518;28;20203;-85
2021/12/12 00:11:15;;;;;;;43.70;40.60;;;;;;;7.37;89.15;101718.81;2089838;28;20279;-85
2021/12/12 00:12:22;;;;;;;48.80;45.40;;;;;;;7.46;89.16;101714.91;2089657;28;20199;-85
2021/12/12 00:13:41;;;;;;;52.43;48.73;;;;;;;6.98;89.10;101628.47;2090621;28;20203;-85
2021/12/12 00:14:45;;;;;;;47.23;43.83;;;;;;;7.31;88.98;101684.56;2091419;28;20199;-85
2021/12/12 00:15:47;;;;;;;50.80;46.93;;;;;;;7.34;88.96;101696.84;2089007;28;20204;-85
2021/12/12 00:16:49;;;;;;;250.57;230.23;;;;;;;7.36;88.54;101693.16;2089100;28;20212;-86
2021/12/12 00:17:51;;;;;;;54.07;50.00;;;;;;;7.25;88.78;101676.84;2089258;28;20223;-86
2021/12/12 00:18:52;;;;;;;47.37;43.67;;;;;;;7.10;88.54;101649.19;2087558;28;20959;-86
2021/12/12 00:19:54;;;;;;;175.70;159.77;;;;;;;6.46;89.05;101538.69;2088209;28;20223;-85
2021/12/12 00:20:56;;;;;;;194.63;177.13;;;;;;;7.49;88.81;101709.44;2087321;28;20215;-85
2021/12/12 00:22:02;;;;;;;58.80;54.57;;;;;;;7.33;88.40;101681.84;2087253;28;20466;-85
2021/12/12 00:23:04;;;;;;;53.23;49.37;;;;;;;6.76;88.61;101588.69;2087981;28;20246;-85
2021/12/12 00:24:08;;;;;;;54.63;50.83;;;;;;;6.87;88.84;101599.72;2088361;28;20574;-86
2021/12/12 00:25:10;;;;;;;51.93;48.73;;;;;;;7.33;89.05;101679.19;2088603;28;20291;-86
2021/12/12 00:26:12;;;;;;;54.53;50.77;;;;;;;7.50;89.16;101710.31;2088920;28;20232;-85
2021/12/12 00:27:13;;;;;;;55.97;52.07;;;;;;;7.09;89.40;101628.84;2087476;28;20567;-86
2021/12/12 00:28:19;;;;;;;63.83;59.47;;;;;;;7.51;89.11;101701.41;2088349;28;20200;-86
2021/12/12 00:29:23;;;;;;;55.50;52.07;;;;;;;7.51;89.07;101690.78;2089108;28;20216;-85
2021/12/12 00:30:25;;;;;;;58.37;54.17;;;;;;;7.23;89.66;101652.13;2087751;28;20230;-86
2021/12/12 00:31:26;;;;;;;62.73;58.30;;;;;;;7.06;88.70;101620.16;2088117;28;20203;-85
2021/12/12 00:32:28;;;;;;;60.30;56.23;;;;;;;7.54;89.03;101694.16;2088236;28;20196;-85
2021/12/12 00:33:29;;;;;;;341.13;308.30;;;;;;;7.45;89.63;101677.75;2087207;28;20292;-86
2021/12/12 00:34:33;;;;;;;60.47;56.87;;;;;;;7.53;89.38;101694.22;2089178;28;20229;-85
2021/12/12 00:35:34;;;;;;;57.73;53.83;;;;;;;7.38;88.83;101666.53;2088768;28;20200;-85
2021/12/12 00:36:38;;;;;;;151.00;140.27;;;;;;;7.10;88.82;101627.94;2087341;28;20766;-85
2021/12/12 00:37:41;;;;;;;56.10;52.40;;;;;;;7.39;89.96;101673.59;2086236;28;20215;-85
2021/12/12 00:38:45;;;;;;;54.53;50.90;;;;;;;7.53;89.18;101692.41;2087942;28;20197;-85
2021/12/12 00:39:51;;;;;;;263.17;243.17;;;;;;;7.52;89.05;101689.84;2089271;28;20646;-85
2021/12/12 00:40:56;;;;;;;201.80;186.87;;;;;;;7.48;89.21;101685.56;2088805;28;20207;-86
2021/12/12 00:42:00;;;;;;;190.47;175.53;;;;;;;7.47;89.49;101676.75;2087505;28;20207;-86
2021/12/12 00:43:07;;;;;;;234.60;214.43;;;;;;;7.45;89.53;101683.94;2087660;28;20227;-85
2021/12/12 00:44:08;;;;;;;152.13;140.03;;;;;;;7.24;88.90;101653.03;2089285;28;20191;-85
2021/12/12 00:45:12;;;;;;;167.37;154.67;;;;;;;7.43;89.54;101693.78;2091391;28;20207;-85
2021/12/12 00:46:14;;;;;;;53.27;49.80;;;;;;;7.43;89.03;101680.47;2088834;28;20250;-86
2021/12/12 00:47:17;;;;;;;174.17;160.63;;;;;;;7.44;89.34;101686.66;2088833;28;20257;-85
2021/12/12 00:48:18;;;;;;;84.47;78.77;;;;;;;7.42;89.48;101684.06;2088827;28;20826;-85
2021/12/12 00:49:20;;;;;;;220.63;204.30;;;;;;;7.42;89.52;101684.06;2086785;28;20246;-85
2021/12/12 00:50:26;;;;;;;53.43;49.63;;;;;;;7.44;89.59;101682.22;2089960;28;20242;-85
2021/12/12 00:51:32;;;;;;;60.60;56.37;;;;;;;7.07;89.48;101613.91;2088935;28;20829;-85
2021/12/12 00:52:32;;;;;;;257.13;237.60;;;;;;;7.23;89.19;101638.84;2088389;28;20234;-85
2021/12/12 00:53:36;;;;;;;70.83;65.60;;;;;;;7.47;89.48;101673.22;2086817;28;20212;-85
2021/12/12 00:54:39;;;;;;;141.67;131.37;;;;;;;6.76;89.76;101565.69;2087726;28;20235;-85
2021/12/12 00:55:42;;;;;;;106.40;98.60;;;;;;;7.01;89.78;101605.28;2088528;28;20262;-85
2021/12/12 00:56:45;;;;;;;58.73;54.90;;;;;;;7.31;89.78;101651.78;2088492;28;20560;-86
2021/12/12 00:57:51;;;;;;;54.63;51.10;;;;;;;7.48;90.21;101675.84;2089010;28;20207;-85
2021/12/12 00:58:54;;;;;;;90.93;84.63;;;;;;;6.47;90.10;101508.56;2087503;28;20208;-85
2021/12/12 00:59:55;;;;;;;60.90;56.83;;;;;;;7.49;89.67;101676.69;2089046;28;20196;-85
2021/12/12 01:01:01;;;;;;;49.80;46.50;;;;;;;7.48;90.41;101682.91;2089143;28;20253;-85
2021/12/12 01:02:05;;;;;;;51.67;47.93;;;;;;;7.50;89.42;101678.44;2088511;28;20208;-85
2021/12/12 01:03:09;;;;;;;81.20;76.17;;;;;;;7.35;89.65;101653.41;2090678;28;20278;-85
2021/12/12 01:04:16;;;;;;;46.80;43.57;;;;;;;7.28;89.62;101646.63;2088013;28;20239;-85
2021/12/12 01:05:17;;;;;;;44.33;40.93;;;;;;;7.44;90.08;101662.72;2089048;28;20196;-85
2021/12/12 01:06:20;;;;;;;50.00;46.90;;;;;;;7.28;89.57;101636.84;2088829;28;20310;-85
2021/12/12 01:07:25;;;;;;;45.73;42.67;;;;;;;7.52;90.43;101672.09;2088405;28;20454;-85
2021/12/12 01:08:29;;;;;;;327.23;295.73;;;;;;;7.48;90.33;101667.84;2085949;28;20231;-85
2021/12/12 01:09:35;;;;;;;55.43;51.83;;;;;;;7.43;90.35;101664.53;2086249;28;20221;-85
2021/12/12 01:10:39;;;;;;;47.10;43.73;;;;;;;7.52;90.37;101673.91;2087862;28;20288;-85
2021/12/12 01:11:45;;;;;;;61.67;57.77;;;;;;;7.52;89.94;101668.59;2087938;28;20204;-85
2021/12/12 01:12:47;;;;;;;154.00;142.43;;;;;;;7.51;90.16;101670.34;2089964;28;20200;-86
2021/12/12 01:13:49;;;;;;;45.63;42.63;;;;;;;7.31;89.93;101636.72;2087245;28;20212;-85
2021/12/12 01:14:56;;;;;;;61.53;57.00;;;;;;;7.53;89.97;101679.13;2087295;28;20212;-85
2021/12/12 01:16:04;;;;;;;65.23;60.70;;;;;;;7.36;90.16;101642.69;2088090;28;20211;-85
2021/12/12 01:17:07;;;;;;;122.97;114.17;;;;;;;6.75;90.63;101545.38;2090448;28;20557;-86
2021/12/12 01:18:13;;;;;;;93.03;86.03;;;;;;;7.52;89.87;101693.38;2090040;28;20219;-86
2021/12/12 01:19:20;;;;;;;50.53;46.87;;;;;;;7.51;90.81;101662.38;2088821;28;20687;-85
2021/12/12 01:20:27;;;;;;;119.07;111.53;;;;;;;7.52;90.17;101674.75;2088584;28;20639;-85
2021/12/12 01:21:34;;;;;;;51.03;47.93;;;;;;;7.08;90.81;101595.22;2090065;28;20210;-85
2021/12/12 01:22:37;;;;;;;89.57;83.20;;;;;;;6.86;90.58;101567.94;2089879;28;21549;-85
2021/12/12 01:23:42;;;;;;;45.60;42.53;;;;;;;7.51;91.43;101686.31;2088299;28;20196;-85
2021/12/12 01:24:48;;;;;;;46.00;42.90;;;;;;;7.12;90.25;101617.22;2089376;28;20329;-85
2021/12/12 01:25:51;;;;;;;46.57;43.53;;;;;;;7.24;90.97;101615.81;2089610;28;20200;-86
2021/12/12 01:26:54;;;;;;;135.23;126.80;;;;;;;7.38;90.88;101639.97;2087225;28;20204;-85
2021/12/12 01:27:58;;;;;;;52.73;48.97;;;;;;;7.37;91.17;101641.75;2090246;28;20355;-85
2021/12/12 01:29:01;;;;;;;44.70;41.50;;;;;;;7.55;90.49;101671.97;2089437;28;20569;-85
2021/12/12 01:30:04;;;;;;;47.87;44.87;;;;;;;7.49;90.51;101664.25;2089215;28;20226;-85
2021/12/12 01:31:08;;;;;;;45.23;42.50;;;;;;;7.54;90.79;101667.56;2089530;28;20212;-85
2021/12/12 01:32:21;;;;;;;44.47;41.57;;;;;;;7.54;91.37;101670.22;2093125;28;20215;-85
2021/12/12 01:33:32;;;;;;;92.80;85.87;;;;;;;7.55;90.74;101673.75;2089707;28;20257;-86
2021/12/12 01:34:34;;;;;;;52.33;49.10;;;;;;;7.46;90.86;101658.22;2088815;28;20197;-85
2021/12/12 01:35:37;;;;;;;112.90;104.93;;;;;;;7.38;91.31;101648.81;2088727;28;20226;-85
2021/12/12 01:36:49;;;;;;;227.50;209.80;;;;;;;7.39;90.74;101644.34;2087657;28;20211;-85
2021/12/12 01:39:12;;;;;;;66.90;62.63;;;;;;;7.24;91.24;101643.25;2089722;28;20223;-85
2021/12/12 01:40:18;;;;;;;41.70;39.00;;;;;;;7.50;91.39;101673.97;2088478;28;20238;-85
2021/12/12 01:41:26;;;;;;;45.43;42.50;;;;;;;6.46;90.71;101490.94;2089021;28;20208;-85
2021/12/12 01:42:32;;;;;;;51.90;47.87;;;;;;;7.53;91.19;101667.63;2088061;28;20237;-85
2021/12/12 01:43:43;;;;;;;52.60;49.30;;;;;;;7.53;91.18;101665.84;2087908;28;20219;-85
2021/12/12 01:44:49;;;;;;;87.33;81.37;;;;;;;6.87;91.23;101582.91;2089127;28;20196;-85
2021/12/12 01:45:54;;;;;;;179.70;165.73;;;;;;;7.48;91.20;101677.59;2089309;28;20208;-85
2021/12/12 01:47:04;;;;;;;58.77;55.37;;;;;;;6.08;90.86;101442.19;2088665;28;20204;-85
2021/12/12 01:48:13;;;;;;;48.63;45.30;;;;;;;7.35;91.53;101648.09;2089508;28;20192;-85
2021/12/12 01:49:18;;;;;;;198.90;184.67;;;;;;;7.46;91.39;101667.06;2088525;28;20203;-85
2021/12/12 01:50:23;;;;;;;47.83;44.70;;;;;;;7.18;91.38;101625.78;2089601;28;20428;-85
2021/12/12 01:51:26;;;;;;;225.97;207.37;;;;;;;7.07;92.32;101604.16;2090024;28;20230;-86
2021/12/12 01:52:29;;;;;;;58.13;54.13;;;;;;;6.63;91.49;101536.16;2088761;28;20199;-85
2021/12/12 01:53:36;;;;;;;132.83;123.03;;;;;;;7.47;91.84;101663.47;2089801;28;20205;-85
2021/12/12 01:54:44;;;;;;;102.20;95.07;;;;;;;6.70;91.45;101542.03;2089585;28;20247;-85
2021/12/12 01:55:51;;;;;;;51.57;48.37;;;;;;;7.45;91.79;101660.00;2089753;28;20227;-85
2021/12/12 01:56:59;;;;;;;56.50;52.50;;;;;;;7.37;92.34;101648.88;2090089;28;20206;-85
2021/12/12 01:58:07;;;;;;;366.37;335.27;;;;;;;7.16;91.78;101609.06;2089070;28;20204;-85
2021/12/12 01:59:10;;;;;;;54.00;50.23;;;;;;;7.50;91.80;101654.50;2090414;28;20196;-85
2021/12/12 02:00:18;;;;;;;62.63;58.47;;;;;;;7.51;92.93;101659.72;2088464;28;20209;-85
2021/12/12 02:01:23;;;;;;;55.17;51.57;;;;;;;7.52;92.38;101652.63;2081106;28;20207;-85
2021/12/12 02:02:28;;;;;;;47.97;44.93;;;;;;;7.51;92.43;101650.91;2080145;28;20556;-85
2021/12/12 02:03:32;;;;;;;53.77;50.13;;;;;;;7.34;93.43;101657.81;2082028;28;20208;-85
2021/12/12 02:04:38;;;;;;;55.67;52.33;;;;;;;7.25;92.92;101623.69;2081338;28;20472;-85
2021/12/12 02:05:40;;;;;;;55.33;52.27;;;;;;;7.33;93.25;101624.22;2080961;28;20555;-85
2021/12/12 02:06:45;;;;;;;277.30;256.03;;;;;;;7.15;93.39;101582.56;2079294;28;20313;-85
2021/12/12 02:07:53;;;;;;;113.17;105.30;;;;;;;7.17;92.70;101593.97;2078981;28;20201;-85
2021/12/12 02:08:57;;;;;;;49.80;47.00;;;;;;;6.55;92.27;101485.19;2081051;28;20200;-85
2021/12/12 02:10:00;;;;;;;48.57;45.60;;;;;;;7.59;92.77;101654.06;2079967;28;20189;-85
2021/12/12 02:11:09;;;;;;;58.37;54.67;;;;;;;7.60;92.51;101653.13;2078603;28;20661;-86
2021/12/12 02:12:11;;;;;;;53.23;50.03;;;;;;;7.61;92.98;101657.53;2079324;28;20212;-85
2021/12/12 02:13:16;;;;;;;113.80;106.87;;;;;;;7.61;93.05;101654.88;2079919;28;20265;-85
2021/12/12 02:14:19;;;;;;;48.37;45.30;;;;;;;7.19;93.29;101594.75;2080612;28;20205;-85
2021/12/12 02:15:21;;;;;;;59.33;55.47;;;;;;;7.62;92.76;101653.06;2078725;28;20204;-85
2021/12/12 02:16:25;;;;;;;55.17;52.00;;;;;;;7.30;93.65;101596.94;2080721;28;20201;-86
2021/12/12 02:17:34;;;;;;;57.43;53.73;;;;;;;7.63;93.91;101658.31;2079609;28;20563;-86
2021/12/12 02:18:38;;;;;;;57.47;54.37;;;;;;;7.37;93.64;101617.00;2080494;28;20273;-85
2021/12/12 02:19:52;;;;;;;53.60;50.40;;;;;;;7.13;93.45;101569.34;2079162;28;20640;-86
2021/12/12 02:21:07;;;;;;;55.33;52.17;;;;;;;7.67;93.21;101651.06;2081062;28;20212;-86
2021/12/12 02:22:31;;;;;;;51.63;48.70;;;;;;;7.66;93.36;101660.81;2079299;28;20259;-85
2021/12/12 02:23:48;;;;;;;51.93;48.93;;;;;;;7.19;93.97;101589.44;2080213;28;20201;-86
2021/12/12 02:35:36;;;;;;;133.33;125.13;;;;;;;7.59;94.23;101660.25;2088704;28;20208;-86
2021/12/12 02:36:37;;;;;;;62.40;58.73;;;;;;;7.58;94.25;101663.84;2091155;28;20589;-86
2021/12/12 02:37:42;;;;;;;159.10;147.50;;;;;;;7.10;93.98;101582.78;2089129;28;20207;-85
2021/12/12 02:38:42;;;;;;;59.70;56.23;;;;;;;7.11;93.71;101594.25;2088731;28;20207;-85
2021/12/12 02:39:44;;;;;;;63.30;59.73;;;;;;;7.36;94.24;101625.88;2090452;28;20206;-85
2021/12/12 02:40:51;;;;;;;67.37;63.13;;;;;;;7.59;93.70;101662.91;2089232;28;20643;-85
2021/12/12 02:41:56;;;;;;;72.47;67.90;;;;;;;7.34;94.46;101620.63;2088705;28;20200;-85
2021/12/12 02:42:58;;;;;;;76.73;72.70;;;;;;;7.06;94.12;101559.06;2086593;28;20196;-85
2021/12/12 02:44:02;;;;;;;73.23;69.13;;;;;;;7.61;93.66;101652.22;2087538;28;20291;-85
2021/12/12 02:45:07;;;;;;;171.90;159.33;;;;;;;7.46;94.34;101628.97;2089011;28;20237;-85
2021/12/12 02:46:11;;;;;;;74.33;70.23;;;;;;;7.39;94.05;101617.78;2089151;28;20204;-85
2021/12/12 02:47:17;;;;;;;80.03;75.73;;;;;;;7.63;93.75;101650.34;2088045;28;20302;-85
2021/12/12 02:48:20;;;;;;;86.60;81.60;;;;;;;7.53;93.77;101625.97;2088229;28;20207;-85
2021/12/12 02:49:36;;;;;;;162.50;152.93;;;;;;;7.63;94.77;101642.38;2088128;28;20297;-85
2021/12/12 02:50:43;;;;;;;149.37;139.40;;;;;;;7.55;94.42;101632.09;2085673;28;20324;-85
2021/12/12 02:51:44;;;;;;;125.80;117.43;;;;;;;7.62;93.93;101648.59;2087005;28;20214;-85
2021/12/12 02:52:49;;;;;;;433.30;396.00;;;;;;;6.85;94.29;101521.06;2087611;28;20199;-85
2021/12/12 02:53:53;;;;;;;88.60;83.77;;;;;;;7.43;94.28;101623.81;2088393;28;20208;-85
2021/12/12 02:54:57;;;;;;;112.23;106.63;;;;;;;7.60;94.00;101638.03;2089690;28;20237;-85
2021/12/12 02:56:01;;;;;;;103.63;98.67;;;;;;;7.63;94.52;101641.47;2089428;28;20212;-85
2021/12/12 02:57:04;;;;;;;104.40;98.83;;;;;;;7.22;94.39;101587.50;2087201;28;20275;-85
2021/12/12 02:58:07;;;;;;;160.10;150.50;;;;;;;6.46;93.85;101442.28;2086092;28;20208;-85
2021/12/12 02:59:13;;;;;;;118.70;112.27;;;;;;;7.64;94.65;101641.41;2088073;28;20235;-85
2021/12/12 03:00:18;;;;;;;142.13;134.17;;;;;;;7.63;93.70;101641.47;2089293;28;20196;-85
2021/12/12 03:01:25;;;;;;;175.43;164.73;;;;;;;7.00;93.74;101546.91;2088589;28;20204;-86
2021/12/12 03:02:31;;;;;;;170.23;160.10;;;;;;;7.62;94.76;101634.47;2087065;28;20863;-86
2021/12/12 03:03:37;;;;;;;114.40;108.40;;;;;;;7.45;94.68;101617.47;2088140;28;20227;-85
2021/12/12 03:04:38;;;;;;;126.20;119.87;;;;;;;7.64;93.90;101643.22;2088676;28;20227;-86
2021/12/12 03:05:43;;;;;;;137.17;129.90;;;;;;;7.66;94.73;101649.31;2089876;28;20243;-85
2021/12/12 03:06:46;;;;;;;163.90;154.37;;;;;;;7.65;93.90;101642.28;2086946;28;20224;-85
2021/12/12 03:07:49;;;;;;;153.40;145.03;;;;;;;7.64;94.49;101638.75;2089660;28;20227;-85
2021/12/12 03:08:54;;;;;;;104.90;99.70;;;;;;;7.26;93.96;101574.94;2088998;28;20215;-85
2021/12/12 03:09:58;;;;;;;182.13;171.27;;;;;;;7.64;94.85;101646.75;2087862;28;20771;-85
2021/12/12 03:10:59;;;;;;;127.90;121.67;;;;;;;7.57;94.83;101630.22;2089495;28;20221;-85
2021/12/12 03:12:08;;;;;;;208.87;196.03;;;;;;;6.71;93.92;101490.69;2087534;28;20206;-85
2021/12/12 03:13:10;;;;;;;122.33;115.87;;;;;;;7.40;94.03;101625.69;2088734;28;20206;-85
2021/12/12 03:14:12;;;;;;;186.40;174.40;;;;;;;7.55;94.36;101624.13;2086359;28;20778;-87
2021/12/12 03:15:16;;;;;;;149.63;142.07;;;;;;;7.14;93.95;101555.13;2086792;28;20210;-85
2021/12/12 03:16:18;;;;;;;236.17;219.33;;;;;;;7.64;94.93;101641.41;2088151;28;20640;-86
2021/12/12 03:17:22;;;;;;;125.20;118.93;;;;;;;7.45;94.08;101608.66;2088462;28;20577;-85
2021/12/12 03:18:28;;;;;;;136.30;129.63;;;;;;;7.66;94.07;101642.22;2087956;28;20210;-85
2021/12/12 03:19:29;;;;;;;179.00;168.90;;;;;;;7.65;94.35;101629.88;2087809;28;20203;-86
2021/12/12 03:20:34;;;;;;;144.97;137.93;;;;;;;7.67;94.51;101643.94;2088904;28;20272;-85
2021/12/12 03:21:42;;;;;;;153.97;146.03;;;;;;;7.60;94.89;101638.03;2087240;28;20256;-86
2021/12/12 03:22:44;;;;;;;394.20;360.37;;;;;;;7.43;94.42;101600.75;2088617;28;20192;-86
2021/12/12 03:23:51;;;;;;;169.70;160.67;;;;;;;7.31;94.88;101583.59;2088429;28;20202;-85
2021/12/12 03:24:52;;;;;;;142.30;135.00;;;;;;;7.44;94.46;101593.63;2088232;28;20199;-86
2021/12/12 03:25:59;;;;;;;156.43;148.87;;;;;;;7.59;94.24;101620.38;2087806;28;20200;-85
2021/12/12 03:27:02;;;;;;;154.03;146.20;;;;;;;7.28;94.72;101570.44;2087452;28;20214;-85
2021/12/12 03:28:05;;;;;;;174.33;166.17;;;;;;;7.51;95.15;101598.59;2087906;28;20203;-85
2021/12/12 03:29:07;;;;;;;182.07;172.37;;;;;;;7.53;94.32;101602.03;2088406;28;20204;-86
2021/12/12 03:30:09;;;;;;;153.13;145.10;;;;;;;7.07;94.51;101516.50;2086216;28;20616;-85
2021/12/12 03:31:15;;;;;;;179.30;169.90;;;;;;;7.49;95.21;101586.31;2086313;28;20237;-85
2021/12/12 03:32:20;;;;;;;141.43;134.57;;;;;;;7.45;95.18;101580.28;2087186;28;20257;-85
2021/12/12 03:33:22;;;;;;;170.00;161.90;;;;;;;7.72;95.66;101618.00;2087342;28;20200;-86
2021/12/12 03:34:27;;;;;;;167.07;158.97;;;;;;;7.19;94.72;101553.09;2089531;28;20207;-85
2021/12/12 03:35:29;;;;;;;170.63;162.00;;;;;;;7.60;95.18;101610.59;2087806;28;20323;-85
2021/12/12 03:36:29;;;;;;;175.90;167.60;;;;;;;7.70;95.21;101613.69;2087641;28;20700;-85
2021/12/12 03:37:34;;;;;;;170.73;162.40;;;;;;;7.78;94.62;101630.16;2086458;28;20266;-85
2021/12/12 03:38:37;;;;;;;161.53;153.83;;;;;;;7.58;95.18;101596.53;2087108;28;20651;-85
2021/12/12 03:39:43;;;;;;;165.00;156.67;;;;;;;7.48;94.41;101573.94;2088055;28;20251;-85
2021/12/12 03:40:45;;;;;;;162.63;154.73;;;;;;;7.43;94.92;101566.19;2086602;28;20207;-85
2021/12/12 03:41:48;;;;;;;168.03;160.13;;;;;;;5.90;94.16;101305.97;2086261;28;20196;-86
2021/12/12 03:42:52;;;;;;;151.47;144.07;;;;;;;7.49;95.19;101573.88;2088099;28;20210;-85
2021/12/12 03:43:57;;;;;;;282.13;263.40;;;;;;;7.62;94.93;101602.56;2088990;28;20205;-85
2021/12/12 03:45:00;;;;;;;211.00;199.30;;;;;;;7.81;94.60;101630.00;2088276;28;20211;-85
2021/12/12 03:46:05;;;;;;;153.00;145.47;;;;;;;7.71;94.76;101613.63;2085598;28;20204;-85
2021/12/12 03:47:12;;;;;;;141.07;134.10;;;;;;;7.57;95.13;101603.63;2087185;28;20326;-85
2021/12/12 03:48:20;;;;;;;162.90;155.13;;;;;;;7.81;94.68;101632.66;2088376;28;20318;-86
2021/12/12 03:49:21;;;;;;;341.97;315.87;;;;;;;7.80;94.84;101623.81;2086041;28;20207;-85
2021/12/12 03:50:30;;;;;;;173.10;164.40;;;;;;;7.62;95.22;101599.91;2086151;28;20210;-85
2021/12/12 03:51:33;;;;;;;148.73;141.50;;;;;;;7.64;94.84;101604.19;2087388;28;20204;-85
2021/12/12 03:52:34;;;;;;;148.63;141.13;;;;;;;7.43;95.87;101570.66;2087919;28;20249;-85
2021/12/12 03:53:38;;;;;;;160.67;153.03;;;;;;;7.62;95.56;101605.22;2089476;28;20224;-85
2021/12/12 03:54:42;;;;;;;162.50;154.70;;;;;;;7.49;95.45;101583.66;2090437;28;20249;-86
2021/12/12 03:55:45;;;;;;;173.57;164.73;;;;;;;7.66;95.21;101596.16;2089737;28;20192;-84
2021/12/12 03:56:47;;;;;;;180.67;171.37;;;;;;;7.55;95.07;101600.19;2090410;28;20215;-85
2021/12/12 03:57:49;;;;;;;281.93;262.97;;;;;;;7.82;94.90;101630.84;2092650;28;20659;-84
2021/12/12 03:58:51;;;;;;;169.63;160.47;;;;;;;7.34;95.21;101556.84;2089750;28;20337;-85
2021/12/12 03:59:53;;;;;;;184.33;173.90;;;;;;;7.65;94.89;101605.94;2089006;28;20287;-84
2021/12/12 04:00:59;;;;;;;158.23;150.23;;;;;;;7.64;95.55;101603.34;2086850;28;20733;-85
2021/12/12 04:02:00;;;;;;;165.23;156.83;;;;;;;6.50;95.04;101438.56;2086327;28;20211;-84
2021/12/12 04:03:02;;;;;;;198.73;188.07;;;;;;;7.40;95.20;101574.31;2087951;28;20208;-84
2021/12/12 04:04:09;;;;;;;172.87;164.20;;;;;;;7.85;95.00;101639.53;2086624;28;20203;-84
2021/12/12 04:05:11;;;;;;;205.87;193.67;;;;;;;7.41;95.76;101566.25;2084491;28;20680;-85
2021/12/12 04:06:14;;;;;;;181.03;171.93;;;;;;;7.64;95.04;101624.63;2086533;28;20206;-85
2021/12/12 04:07:19;;;;;;;177.13;167.10;;;;;;;6.28;95.04;101372.34;2085690;28;20221;-84
2021/12/12 04:08:25;;;;;;;132.67;125.83;;;;;;;6.54;95.45;101430.41;2084990;28;20223;-84
2021/12/12 04:09:27;;;;;;;270.93;251.23;;;;;;;7.45;95.66;101584.75;2087171;28;20203;-85
2021/12/12 04:10:29;;;;;;;141.73;134.63;;;;;;;7.45;94.95;101577.63;2086985;28;20211;-84
2021/12/12 04:11:36;;;;;;;152.03;144.00;;;;;;;7.86;95.89;101656.38;2086354;28;20655;-84
2021/12/12 04:12:37;;;;;;;140.10;132.90;;;;;;;7.86;95.43;101654.59;2087984;28;20211;-85
2021/12/12 04:13:40;;;;;;;128.63;122.13;;;;;;;7.65;95.53;101618.34;2087587;28;20208;-85
2021/12/12 04:14:41;;;;;;;130.87;124.57;;;;;;;7.90;96.21;101661.47;2086679;28;20309;-84
2021/12/12 04:15:43;;;;;;;149.07;141.53;;;;;;;7.53;95.86;101607.34;2085633;28;20204;-85
2021/12/12 04:16:48;;;;;;;130.63;123.63;;;;;;;7.49;95.81;101610.22;2084341;28;20215;-85
2021/12/12 04:17:51;;;;;;;133.23;126.27;;;;;;;7.93;96.18;101669.31;2088164;28;20651;-84
2021/12/12 04:18:51;;;;;;;311.90;289.90;;;;;;;7.28;96.06;101559.81;2087019;28;20222;-84
2021/12/12 04:19:56;;;;;;;328.57;305.17;;;;;;;7.89;95.54;101667.75;2086692;28;20223;-85
2021/12/12 04:20:57;;;;;;;112.90;107.00;;;;;;;7.75;96.23;101639.13;2086806;28;20215;-85
2021/12/12 04:22:00;;;;;;;114.67;108.60;;;;;;;7.92;96.08;101664.91;2086205;28;20231;-84
2021/12/12 04:23:02;;;;;;;117.30;111.10;;;;;;;7.94;96.66;101657.72;2087907;28;20207;-85
2021/12/12 04:24:04;;;;;;;222.93;209.03;;;;;;;7.71;95.95;101626.91;2085989;28;20569;-84
2021/12/12 04:25:06;;;;;;;120.37;113.80;;;;;;;7.97;96.49;101662.06;2087916;28;20204;-84
2021/12/12 04:26:15;;;;;;;120.67;114.33;;;;;;;7.98;96.58;101658.44;2086778;28;20232;-85
2021/12/12 04:27:18;;;;;;;114.73;108.50;;;;;;;7.91;95.85;101643.72;2083583;28;20232;-85
2021/12/12 04:28:20;;;;;;;115.97;109.50;;;;;;;7.76;95.45;101619.59;2087183;28;20203;-85
2021/12/12 04:29:25;;;;;;;125.67;118.73;;;;;;;8.02;96.51;101648.53;2085189;28;20200;-85
2021/12/12 04:30:27;;;;;;;122.87;116.00;;;;;;;8.01;95.59;101658.31;2085560;28;20753;-84
2021/12/12 04:31:30;;;;;;;115.87;109.60;;;;;;;7.62;96.47;101587.47;2087486;28;20199;-85
2021/12/12 04:32:32;;;;;;;130.40;123.13;;;;;;;7.64;96.51;101598.03;2084591;28;20229;-84
2021/12/12 04:33:33;;;;;;;110.13;104.30;;;;;;;7.78;96.31;101628.34;2087011;28;20218;-85
2021/12/12 04:34:38;;;;;;;105.93;99.93;;;;;;;8.03;95.94;101652.94;2088893;28;20196;-85
2021/12/12 04:35:40;;;;;;;153.10;144.33;;;;;;;7.41;95.86;101557.44;2087012;28;20766;-85
2021/12/12 04:36:45;;;;;;;124.30;117.20;;;;;;;7.82;96.29;101623.75;2085876;28;20204;-84
2021/12/12 04:37:47;;;;;;;101.97;96.33;;;;;;;8.02;95.94;101643.22;2086063;28;20200;-84
2021/12/12 04:38:48;;;;;;;154.80;145.67;;;;;;;7.62;96.51;101590.13;2086520;28;20231;-85
2021/12/12 04:39:53;;;;;;;323.40;300.37;;;;;;;8.00;96.38;101653.91;2086398;28;20196;-84
2021/12/12 04:40:56;;;;;;;109.23;103.13;;;;;;;7.82;96.17;101637.06;2087460;28;20231;-85
2021/12/12 04:42:02;;;;;;;110.70;104.37;;;;;;;7.81;95.78;101616.69;2087083;28;20200;-84
2021/12/12 04:43:04;;;;;;;105.23;99.47;;;;;;;7.27;96.33;101536.84;2085379;28;20204;-84
2021/12/12 04:44:05;;;;;;;108.17;102.13;;;;;;;8.05;96.03;101653.72;2086403;28;20212;-85
2021/12/12 04:45:20;;;;;;;106.00;99.83;;;;;;;7.57;96.32;101576.16;2088335;28;20214;-85
2021/12/12 04:46:25;;;;;;;95.60;89.63;;;;;;;7.66;96.53;101602.31;2085977;28;20211;-84
2021/12/12 04:50:22;;;;;;;89.43;84.23;;;;;;;7.54;95.79;101571.03;2087396;28;20200;-84
2021/12/12 04:51:26;;;;;;;102.03;96.30;;;;;;;7.56;96.10;101571.81;2086111;28;20266;-85
2021/12/12 04:52:41;;;;;;;104.23;97.93;;;;;;;7.26;96.42;101513.00;2089393;28;20211;-85
2021/12/12 04:53:48;;;;;;;106.40;100.03;;;;;;;7.87;96.44;101628.84;2089442;28;20214;-84
2021/12/12 04:54:58;;;;;;;110.60;104.57;;;;;;;7.49;96.42;101557.06;2087753;28;20242;-85
2021/12/12 04:56:09;;;;;;;91.83;86.00;;;;;;;7.73;96.63;101600.25;2086542;28;20239;-84
2021/12/12 04:57:19;;;;;;;192.50;180.37;;;;;;;7.73;96.72;101593.13;2087586;28;20212;-85
2021/12/12 04:58:27;;;;;;;387.60;356.40;;;;;;;7.87;96.39;101619.06;2088753;28;20675;-84
2021/12/12 04:59:34;;;;;;;108.00;101.70;;;;;;;7.29;96.36;101519.03;2087261;28;20230;-84
2021/12/12 05:00:42;;;;;;;105.87;99.30;;;;;;;7.39;96.54;101541.56;2087607;28;20223;-84
2021/12/12 05:01:45;;;;;;;166.83;155.80;;;;;;;7.59;96.87;101575.19;2089121;28;20215;-85
2021/12/12 05:02:58;;;;;;;105.53;99.00;;;;;;;7.04;96.52;101481.25;2089187;28;20629;-84
2021/12/12 05:04:07;;;;;;;106.67;100.20;;;;;;;8.11;96.42;101650.75;2086583;28;20204;-85
2021/12/12 05:05:13;;;;;;;107.03;100.30;;;;;;;7.74;96.55;101610.81;2088194;28;20225;-85
2021/12/12 05:06:22;;;;;;;108.17;101.80;;;;;;;8.14;96.53;101662.09;2087943;28;20223;-85
2021/12/12 05:07:30;;;;;;;107.77;101.40;;;;;;;6.69;96.62;101415.56;2088806;28;20292;-85
2021/12/12 05:08:37;;;;;;;104.53;98.40;;;;;;;7.10;96.88;101472.97;2089653;28;20200;-85
2021/12/12 05:09:47;;;;;;;103.50;97.17;;;;;;;8.16;96.87;101643.41;2087165;28;20189;-85